Lucky Thirteen — WDD8654 — position and weather

sailwx.info

Track history (hours):
 
Tides and Currents Weather Stations Pressure Air Temp Water Temp Dewpoint Dewpoint Depression Visibility Wind Speed Wind Dir Waves Ship Positions

Lucky Thirteen

Owner: Kristine L Inc., Barnegat Light, NJ. More information available from US FCC via Universal Licensing System and Coast Guard Vessel Documentation Center.

Last reported at 2017-May-23 10:07 UTC. Time now 2017-May-23 17:04 UTC.
Position N 39°45' W 074°07'.

Length 23 m.

Type: Fishing. MMSI: 367300990.

Date/timePositionNaut miles runAvg speedWind from/ knotsBaromVisibWave heightAir tempDewpointWater temp
2017-May-23 10:07N 39°45' W 074°07'0 0.0
2017-May-23 09:49N 39°45' W 074°07'0 0.0
2017-May-23 05:28N 39°45' W 074°07'0 0.1
2017-May-23 04:37N 39°45' W 074°07'0 1.9
2017-May-23 04:30N 39°45' W 074°07'4 6.4
2017-May-23 03:50N 39°47' W 074°02'2 0.1
2017-May-22 10:36N 39°48' W 073°59'4 8.5
2017-May-22 10:10N 39°46' W 074°04'3 0.8
2017-May-22 06:53N 39°45' W 074°07'0 0.0
2017-May-22 06:14N 39°45' W 074°07'0 0.0
2017-May-22 04:11N 39°45' W 074°07'0 0.0
2017-May-21 23:53N 39°45' W 074°07'0 0.0
2017-May-21 21:29N 39°45' W 074°07'0 0.0
2017-May-21 13:53N 39°45' W 074°07'0 0.0
2017-May-21 09:41N 39°45' W 074°07'0 0.0
2017-May-21 09:20N 39°45' W 074°07'0 0.0
2017-May-21 08:59N 39°45' W 074°07'0 0.0
2017-May-21 08:26N 39°45' W 074°07'0 0.0
2017-May-21 07:35N 39°45' W 074°07'0 0.0
2017-May-21 06:17N 39°45' W 074°07'0 0.0
2017-May-21 05:50N 39°45' W 074°07'0 0.0
2017-May-21 05:26N 39°45' W 074°07'0 0.0
2017-May-21 03:53N 39°45' W 074°07'0 0.0
2017-May-21 01:29N 39°45' W 074°07'0 0.0
2017-May-20 22:23N 39°45' W 074°07'0 0.0
2017-May-20 17:08N 39°45' W 074°07'0 0.0
2017-May-20 16:56N 39°45' W 074°07'0 0.0
2017-May-20 14:50N 39°45' W 074°07'0 0.0
2017-May-20 13:50N 39°45' W 074°07'0 0.0
2017-May-20 09:17N 39°45' W 074°07'0 0.0
2017-May-20 08:53N 39°45' W 074°07'0 0.0
2017-May-20 08:23N 39°45' W 074°07'0 0.0
2017-May-20 06:41N 39°45' W 074°07'0 0.0
2017-May-20 06:29N 39°45' W 074°07'0 0.0
2017-May-20 01:14N 39°45' W 074°07'0 0.0
2017-May-20 00:56N 39°45' W 074°07'0 0.0
2017-May-20 00:23N 39°45' W 074°07'0 0.0
2017-May-19 21:23N 39°45' W 074°07'0 0.0
2017-May-19 20:41N 39°45' W 074°07'0 0.0
2017-May-19 20:11N 39°45' W 074°07'0 0.0
2017-May-19 10:41N 39°45' W 074°07'0 0.0
2017-May-19 08:14N 39°45' W 074°07'0 0.0
2017-May-19 05:38N 39°45' W 074°07'0 0.0
2017-May-19 05:08N 39°45' W 074°07'0 0.0
2017-May-18 23:08N 39°45' W 074°07'0 0.0
2017-May-18 09:23N 39°45' W 074°07'0 0.0
2017-May-18 05:22N 39°45' W 074°07'0 0.0
2017-May-18 05:01N 39°45' W 074°07'2 4.8
2017-May-18 04:31N 39°46' W 074°04'17 1.0
2017-May-17 10:53N 39°53' W 073°44'7 7.1
2017-May-17 09:50N 39°49' W 073°52'2 6.8
2017-May-17 09:30N 39°49' W 073°55'3 6.9
2017-May-17 09:00N 39°48' W 073°59'3 7.0
2017-May-17 08:30N 39°46' W 074°03'3 2.3
2017-May-17 07:13N 39°45' W 074°07'0 0.0
2017-May-17 06:40N 39°45' W 074°07'1 4.2
2017-May-17 06:24N 39°46' W 074°06'3 6.2
2017-May-17 05:58N 39°46' W 074°02'3 7.0
2017-May-17 05:28N 39°47' W 073°58'7 7.2
2017-May-17 04:28N 39°49' W 073°49'4 7.1
2017-May-17 03:55N 39°50' W 073°44'9 0.5
2017-May-16 10:23N 39°49' W 073°56'3 8.2
2017-May-16 09:58N 39°48' W 073°60'5 8.3
2017-May-16 09:25N 39°46' W 074°05'1 0.8
2017-May-16 07:42N 39°45' W 074°07'0 0.0
2017-May-16 07:12N 39°45' W 074°07'0 0.0
2017-May-16 06:42N 39°45' W 074°07'0 0.0
2017-May-16 06:30N 39°45' W 074°07'0 0.0
2017-May-16 04:18N 39°45' W 074°07'0 0.0
2017-May-15 21:30N 39°45' W 074°07'0 0.0
2017-May-15 09:42N 39°45' W 074°07'0 0.0
2017-May-15 08:00N 39°45' W 074°07'0 0.0
2017-May-14 03:19N 39°45' W 074°07'0 0.0
2017-May-13 10:52N 39°45' W 074°07'0 0.0
2017-May-13 10:22N 39°45' W 074°07'  
Track history (hours):
 
Tides and Currents Weather Stations Pressure Air Temp Water Temp Dewpoint Dewpoint Depression Visibility Wind Speed Wind Dir Waves Ship Positions

Lucky Thirteen

Owner: Kristine L Inc., Barnegat Light, NJ. More information available from US FCC via Universal Licensing System and Coast Guard Vessel Documentation Center.

Last reported at 2017-May-23 10:07 UTC. Time now 2017-May-23 17:04 UTC.
Position N 39°45' W 074°07'.

Length 23 m.

Type: Fishing. MMSI: 367300990.

Date/timePositionNaut miles runAvg speedWind from/ knotsBaromVisibWave heightAir tempDewpointWater temp
2017-May-23 10:07N 39°45' W 074°07'0 0.0
2017-May-23 09:49N 39°45' W 074°07'0 0.0
2017-May-23 05:28N 39°45' W 074°07'0 0.1
2017-May-23 04:37N 39°45' W 074°07'0 1.9
2017-May-23 04:30N 39°45' W 074°07'4 6.4
2017-May-23 03:50N 39°47' W 074°02'2 0.1
2017-May-22 10:36N 39°48' W 073°59'4 8.5
2017-May-22 10:10N 39°46' W 074°04'3 0.8
2017-May-22 06:53N 39°45' W 074°07'0 0.0
2017-May-22 06:14N 39°45' W 074°07'0 0.0
2017-May-22 04:11N 39°45' W 074°07'0 0.0
2017-May-21 23:53N 39°45' W 074°07'0 0.0
2017-May-21 21:29N 39°45' W 074°07'0 0.0
2017-May-21 13:53N 39°45' W 074°07'0 0.0
2017-May-21 09:41N 39°45' W 074°07'0 0.0
2017-May-21 09:20N 39°45' W 074°07'0 0.0
2017-May-21 08:59N 39°45' W 074°07'0 0.0
2017-May-21 08:26N 39°45' W 074°07'0 0.0
2017-May-21 07:35N 39°45' W 074°07'0 0.0
2017-May-21 06:17N 39°45' W 074°07'0 0.0
2017-May-21 05:50N 39°45' W 074°07'0 0.0
2017-May-21 05:26N 39°45' W 074°07'0 0.0
2017-May-21 03:53N 39°45' W 074°07'0 0.0
2017-May-21 01:29N 39°45' W 074°07'0 0.0
2017-May-20 22:23N 39°45' W 074°07'0 0.0
2017-May-20 17:08N 39°45' W 074°07'0 0.0
2017-May-20 16:56N 39°45' W 074°07'0 0.0
2017-May-20 14:50N 39°45' W 074°07'0 0.0
2017-May-20 13:50N 39°45' W 074°07'0 0.0
2017-May-20 09:17N 39°45' W 074°07'0 0.0
2017-May-20 08:53N 39°45' W 074°07'0 0.0
2017-May-20 08:23N 39°45' W 074°07'0 0.0
2017-May-20 06:41N 39°45' W 074°07'0 0.0
2017-May-20 06:29N 39°45' W 074°07'0 0.0
2017-May-20 01:14N 39°45' W 074°07'0 0.0
2017-May-20 00:56N 39°45' W 074°07'0 0.0
2017-May-20 00:23N 39°45' W 074°07'0 0.0
2017-May-19 21:23N 39°45' W 074°07'0 0.0
2017-May-19 20:41N 39°45' W 074°07'0 0.0
2017-May-19 20:11N 39°45' W 074°07'0 0.0
2017-May-19 10:41N 39°45' W 074°07'0 0.0
2017-May-19 08:14N 39°45' W 074°07'0 0.0
2017-May-19 05:38N 39°45' W 074°07'0 0.0
2017-May-19 05:08N 39°45' W 074°07'0 0.0
2017-May-18 23:08N 39°45' W 074°07'0 0.0
2017-May-18 09:23N 39°45' W 074°07'0 0.0
2017-May-18 05:22N 39°45' W 074°07'0 0.0
2017-May-18 05:01N 39°45' W 074°07'2 4.8
2017-May-18 04:31N 39°46' W 074°04'17 1.0
2017-May-17 10:53N 39°53' W 073°44'7 7.1
2017-May-17 09:50N 39°49' W 073°52'2 6.8
2017-May-17 09:30N 39°49' W 073°55'3 6.9
2017-May-17 09:00N 39°48' W 073°59'3 7.0
2017-May-17 08:30N 39°46' W 074°03'3 2.3
2017-May-17 07:13N 39°45' W 074°07'0 0.0
2017-May-17 06:40N 39°45' W 074°07'1 4.2
2017-May-17 06:24N 39°46' W 074°06'3 6.2
2017-May-17 05:58N 39°46' W 074°02'3 7.0
2017-May-17 05:28N 39°47' W 073°58'7 7.2
2017-May-17 04:28N 39°49' W 073°49'4 7.1
2017-May-17 03:55N 39°50' W 073°44'9 0.5
2017-May-16 10:23N 39°49' W 073°56'3 8.2
2017-May-16 09:58N 39°48' W 073°60'5 8.3
2017-May-16 09:25N 39°46' W 074°05'1 0.8
2017-May-16 07:42N 39°45' W 074°07'0 0.0
2017-May-16 07:12N 39°45' W 074°07'0 0.0
2017-May-16 06:42N 39°45' W 074°07'0 0.0
2017-May-16 06:30N 39°45' W 074°07'0 0.0
2017-May-16 04:18N 39°45' W 074°07'0 0.0
2017-May-15 21:30N 39°45' W 074°07'0 0.0
2017-May-15 09:42N 39°45' W 074°07'0 0.0
2017-May-15 08:00N 39°45' W 074°07'0 0.0
2017-May-14 03:19N 39°45' W 074°07'0 0.0
2017-May-13 10:52N 39°45' W 074°07'0 0.0
2017-May-13 10:22N 39°45' W 074°07'  

Dump ship's entire track history